DLH9815 BKPR-LKPR
Flight info
| Callsign | DLH9815 |
|---|---|
| Flight time | 1h 34m |
| Altitude | 40000 |
| Route | KUKAD1D KUKAD DCT RETRA DCT NILKU DCT BAREB DCT LALES DCT TUMKA DCT VLM |
| Aircraft | A343/H-SDE2E3FGHIJ4J5M1RWXY/LB1D1 |
Departure
| Time | 2026-04-26 00:45 |
|---|---|
| Airport | Priština Adem Jashari International Airport (BKPR) |
Arrival
| Time | 2026-04-26 02:19 |
|---|---|
| Airport | Václav Havel Airport Prague (LKPR) |
| Time | Latitude | Longitude | Altitude | Speed | Heading |
|---|---|---|---|---|---|
| 2026-04-26 00:18 | 42.57473 | 21.03161 | 1791 ft | 0 kts | 265° |
| 2026-04-26 00:33 | 42.57473 | 21.03162 | 1791 ft | 1 kts | 265° |
| 2026-04-26 00:33 | 42.57475 | 21.03185 | 1790 ft | 4 kts | 262° |
| 2026-04-26 00:33 | 42.57484 | 21.03213 | 1788 ft | 4 kts | 208° |
| 2026-04-26 00:34 | 42.57494 | 21.03219 | 1788 ft | 4 kts | 189° |
| 2026-04-26 00:34 | 42.57508 | 21.03221 | 1788 ft | 4 kts | 177° |
| 2026-04-26 00:34 | 42.57515 | 21.03221 | 1788 ft | 0 kts | 175° |
| 2026-04-26 00:37 | 42.57511 | 21.03221 | 1791 ft | 1 kts | 175° |
| 2026-04-26 00:38 | 42.57493 | 21.03223 | 1790 ft | 4 kts | 175° |
| 2026-04-26 00:38 | 42.57461 | 21.03227 | 1790 ft | 6 kts | 175° |
| 2026-04-26 00:38 | 42.57417 | 21.03232 | 1790 ft | 7 kts | 175° |
| 2026-04-26 00:38 | 42.57359 | 21.03238 | 1790 ft | 9 kts | 175° |
| 2026-04-26 00:39 | 42.57327 | 21.03284 | 1789 ft | 7 kts | 101° |
| 2026-04-26 00:39 | 42.57305 | 21.03337 | 1789 ft | 5 kts | 149° |
| 2026-04-26 00:39 | 42.57260 | 21.03347 | 1790 ft | 7 kts | 174° |
| 2026-04-26 00:39 | 42.57203 | 21.03353 | 1789 ft | 10 kts | 175° |
| 2026-04-26 00:40 | 42.57124 | 21.03360 | 1789 ft | 13 kts | 175° |
| 2026-04-26 00:40 | 42.57034 | 21.03369 | 1789 ft | 13 kts | 176° |
| 2026-04-26 00:40 | 42.56940 | 21.03379 | 1789 ft | 15 kts | 176° |
| 2026-04-26 00:40 | 42.56825 | 21.03391 | 1786 ft | 18 kts | 175° |
| 2026-04-26 00:41 | 42.56692 | 21.03405 | 1786 ft | 19 kts | 175° |
| 2026-04-26 00:41 | 42.56560 | 21.03420 | 1787 ft | 19 kts | 175° |
| 2026-04-26 00:41 | 42.56420 | 21.03433 | 1787 ft | 20 kts | 176° |
| 2026-04-26 00:41 | 42.56287 | 21.03445 | 1791 ft | 18 kts | 176° |
| 2026-04-26 00:42 | 42.56168 | 21.03458 | 1794 ft | 17 kts | 175° |
| 2026-04-26 00:42 | 42.56054 | 21.03471 | 1796 ft | 16 kts | 175° |
| 2026-04-26 00:42 | 42.55945 | 21.03482 | 1798 ft | 16 kts | 176° |
| 2026-04-26 00:42 | 42.55838 | 21.03494 | 1798 ft | 15 kts | 168° |
| 2026-04-26 00:43 | 42.55807 | 21.03604 | 1801 ft | 14 kts | 87° |
| 2026-04-26 00:43 | 42.55816 | 21.03711 | 1799 ft | 9 kts | 69° |
| 2026-04-26 00:43 | 42.55852 | 21.03732 | 1800 ft | 6 kts | 8° |
| 2026-04-26 00:43 | 42.55879 | 21.03731 | 1799 ft | 0 kts | 356° |
| 2026-04-26 00:44 | 42.56008 | 21.03718 | 1797 ft | 50 kts | 355° |
| 2026-04-26 00:45 | 42.56589 | 21.03660 | 1785 ft | 115 kts | 355° |
| 2026-04-26 00:45 | 42.57510 | 21.03560 | 1796 ft | 161 kts | 355° |
| 2026-04-26 00:45 | 42.58697 | 21.03446 | 2382 ft | 166 kts | 356° |
| 2026-04-26 00:45 | 42.59869 | 21.03333 | 3002 ft | 176 kts | 355° |
| 2026-04-26 00:46 | 42.61190 | 21.03194 | 3345 ft | 204 kts | 355° |
| 2026-04-26 00:46 | 42.62669 | 21.02731 | 3569 ft | 240 kts | 330° |
| 2026-04-26 00:46 | 42.63930 | 21.01147 | 4283 ft | 252 kts | 308° |
| 2026-04-26 00:46 | 42.64996 | 20.99312 | 5516 ft | 244 kts | 307° |
| 2026-04-26 00:47 | 42.66040 | 20.97505 | 6709 ft | 240 kts | 308° |
| 2026-04-26 00:47 | 42.67081 | 20.95723 | 7678 ft | 243 kts | 308° |
| 2026-04-26 00:47 | 42.68061 | 20.93825 | 8572 ft | 248 kts | 298° |
| 2026-04-26 00:47 | 42.68651 | 20.91587 | 9377 ft | 260 kts | 285° |
| 2026-04-26 00:48 | 42.68844 | 20.89076 | 10002 ft | 276 kts | 267° |
| 2026-04-26 00:48 | 42.68530 | 20.86418 | 10515 ft | 296 kts | 258° |
| 2026-04-26 00:48 | 42.67929 | 20.83651 | 10852 ft | 318 kts | 252° |
| 2026-04-26 00:48 | 42.67116 | 20.80748 | 11187 ft | 339 kts | 249° |
| 2026-04-26 00:49 | 42.66195 | 20.77701 | 11644 ft | 353 kts | 251° |
| 2026-04-26 00:49 | 42.65597 | 20.74440 | 12279 ft | 359 kts | 265° |
| 2026-04-26 00:49 | 42.65702 | 20.71044 | 13002 ft | 362 kts | 283° |
| 2026-04-26 00:49 | 42.66427 | 20.67747 | 13767 ft | 366 kts | 291° |
| 2026-04-26 00:50 | 42.67415 | 20.64583 | 14451 ft | 371 kts | 296° |
| 2026-04-26 00:50 | 42.68557 | 20.61428 | 15153 ft | 375 kts | 297° |
| 2026-04-26 00:50 | 42.69763 | 20.58267 | 15879 ft | 378 kts | 298° |
| 2026-04-26 00:50 | 42.70984 | 20.55067 | 16633 ft | 382 kts | 297° |
| 2026-04-26 00:51 | 42.72196 | 20.51829 | 17357 ft | 386 kts | 297° |
| 2026-04-26 00:51 | 42.73395 | 20.48551 | 18082 ft | 390 kts | 296° |
| 2026-04-26 00:51 | 42.74592 | 20.45223 | 18765 ft | 393 kts | 296° |
| 2026-04-26 00:51 | 42.75783 | 20.41874 | 19445 ft | 394 kts | 296° |
| 2026-04-26 00:52 | 42.76975 | 20.38501 | 20166 ft | 395 kts | 296° |
| 2026-04-26 00:52 | 42.78166 | 20.35123 | 20835 ft | 397 kts | 296° |
| 2026-04-26 00:52 | 42.79368 | 20.31714 | 21457 ft | 400 kts | 296° |
| 2026-04-26 00:52 | 42.80574 | 20.28289 | 22085 ft | 403 kts | 296° |
| 2026-04-26 00:53 | 42.81790 | 20.24838 | 22725 ft | 405 kts | 296° |
| 2026-04-26 00:53 | 42.83012 | 20.21365 | 23330 ft | 408 kts | 296° |
| 2026-04-26 00:53 | 42.84244 | 20.17861 | 23889 ft | 411 kts | 295° |
| 2026-04-26 00:53 | 42.85467 | 20.14381 | 24350 ft | 414 kts | 295° |
| 2026-04-26 00:54 | 42.86713 | 20.10829 | 24844 ft | 416 kts | 295° |
| 2026-04-26 00:54 | 42.87961 | 20.07266 | 25312 ft | 418 kts | 295° |
| 2026-04-26 00:54 | 42.89220 | 20.03669 | 25778 ft | 421 kts | 295° |
| 2026-04-26 00:54 | 42.90486 | 20.00045 | 26231 ft | 424 kts | 295° |
| 2026-04-26 00:55 | 42.91756 | 19.96407 | 26671 ft | 427 kts | 295° |
| 2026-04-26 00:55 | 42.93033 | 19.92741 | 27129 ft | 429 kts | 295° |
| 2026-04-26 00:55 | 42.94318 | 19.89048 | 27538 ft | 432 kts | 295° |
| 2026-04-26 00:55 | 42.95607 | 19.85335 | 27957 ft | 434 kts | 295° |
| 2026-04-26 00:56 | 42.96904 | 19.81598 | 28359 ft | 437 kts | 295° |
| 2026-04-26 00:56 | 42.98206 | 19.77842 | 28747 ft | 439 kts | 295° |
| 2026-04-26 00:56 | 42.99514 | 19.74064 | 29154 ft | 441 kts | 295° |
| 2026-04-26 00:56 | 43.00823 | 19.70274 | 29535 ft | 443 kts | 295° |
| 2026-04-26 00:57 | 43.02142 | 19.66455 | 29907 ft | 446 kts | 294° |
| 2026-04-26 00:57 | 43.03468 | 19.62608 | 30254 ft | 448 kts | 294° |
| 2026-04-26 00:57 | 43.04798 | 19.58742 | 30528 ft | 450 kts | 294° |
| 2026-04-26 00:57 | 43.06117 | 19.54903 | 30846 ft | 451 kts | 294° |
| 2026-04-26 00:58 | 43.07448 | 19.51027 | 31287 ft | 450 kts | 294° |
| 2026-04-26 00:58 | 43.08774 | 19.47156 | 31723 ft | 448 kts | 294° |
| 2026-04-26 00:58 | 43.10095 | 19.43297 | 32128 ft | 447 kts | 294° |
| 2026-04-26 00:58 | 43.11412 | 19.39443 | 32547 ft | 446 kts | 294° |
| 2026-04-26 00:59 | 43.12722 | 19.35606 | 32963 ft | 444 kts | 294° |
| 2026-04-26 00:59 | 43.13891 | 19.32176 | 33334 ft | 443 kts | 294° |
| 2026-04-26 00:59 | 43.14650 | 19.29947 | 33571 ft | 443 kts | 294° |
| 2026-04-26 00:59 | 43.15932 | 19.26175 | 33962 ft | 441 kts | 294° |
| 2026-04-26 01:00 | 43.17226 | 19.22365 | 34314 ft | 440 kts | 294° |
| 2026-04-26 01:00 | 43.18514 | 19.18567 | 34636 ft | 439 kts | 294° |
| 2026-04-26 01:00 | 43.19800 | 19.14768 | 34926 ft | 439 kts | 294° |
| 2026-04-26 01:00 | 43.21084 | 19.10972 | 35235 ft | 439 kts | 294° |
| 2026-04-26 01:01 | 43.22361 | 19.07189 | 35571 ft | 437 kts | 294° |
| 2026-04-26 01:01 | 43.23635 | 19.03411 | 35885 ft | 436 kts | 294° |
| 2026-04-26 01:01 | 43.24907 | 18.99635 | 36140 ft | 436 kts | 294° |
| 2026-04-26 01:01 | 43.26177 | 18.95862 | 36447 ft | 435 kts | 294° |
| 2026-04-26 01:02 | 43.27447 | 18.92082 | 36682 ft | 435 kts | 294° |
| 2026-04-26 01:02 | 43.28715 | 18.88299 | 36939 ft | 436 kts | 294° |
| 2026-04-26 01:02 | 43.29987 | 18.84531 | 37207 ft | 436 kts | 295° |
| 2026-04-26 01:02 | 43.31479 | 18.80901 | 37485 ft | 436 kts | 302° |
| 2026-04-26 01:03 | 43.33312 | 18.77577 | 37792 ft | 437 kts | 309° |
| 2026-04-26 01:03 | 43.35449 | 18.74669 | 38043 ft | 439 kts | 317° |
| 2026-04-26 01:03 | 43.37922 | 18.72189 | 38280 ft | 442 kts | 326° |
| 2026-04-26 01:03 | 43.40690 | 18.70304 | 38561 ft | 446 kts | 336° |
| 2026-04-26 01:04 | 43.43660 | 18.69052 | 38795 ft | 449 kts | 343° |
| 2026-04-26 01:04 | 43.46748 | 18.68290 | 39010 ft | 452 kts | 348° |
| 2026-04-26 01:04 | 43.49876 | 18.67831 | 39241 ft | 453 kts | 351° |
| 2026-04-26 01:04 | 43.53026 | 18.67514 | 39422 ft | 453 kts | 352° |
| 2026-04-26 01:05 | 43.56175 | 18.67242 | 39624 ft | 453 kts | 352° |
| 2026-04-26 01:05 | 43.59321 | 18.66964 | 39802 ft | 453 kts | 352° |
| 2026-04-26 01:05 | 43.62463 | 18.66661 | 39976 ft | 453 kts | 352° |
| 2026-04-26 01:05 | 43.65611 | 18.66331 | 40077 ft | 455 kts | 351° |
| 2026-04-26 01:06 | 43.71912 | 18.65619 | 40078 ft | 456 kts | 351° |
| 2026-04-26 01:06 | 43.78217 | 18.64885 | 40077 ft | 454 kts | 351° |
| 2026-04-26 01:07 | 43.84523 | 18.64149 | 40085 ft | 454 kts | 351° |
| 2026-04-26 01:07 | 43.90824 | 18.63415 | 40073 ft | 454 kts | 351° |
| 2026-04-26 01:08 | 43.97128 | 18.62680 | 40072 ft | 454 kts | 351° |
| 2026-04-26 01:08 | 44.03385 | 18.61949 | 40069 ft | 454 kts | 351° |
| 2026-04-26 01:09 | 44.09691 | 18.61213 | 40064 ft | 454 kts | 351° |
| 2026-04-26 01:09 | 44.15995 | 18.60474 | 40052 ft | 453 kts | 351° |
| 2026-04-26 01:10 | 44.22280 | 18.59736 | 40056 ft | 453 kts | 351° |
| 2026-04-26 01:10 | 44.28526 | 18.59000 | 40051 ft | 453 kts | 350° |
| 2026-04-26 01:11 | 44.34824 | 18.58256 | 40025 ft | 453 kts | 350° |
| 2026-04-26 01:11 | 44.41116 | 18.57513 | 40021 ft | 453 kts | 350° |
| 2026-04-26 01:12 | 44.47402 | 18.56769 | 40020 ft | 453 kts | 350° |
| 2026-04-26 01:12 | 44.53676 | 18.56024 | 40021 ft | 453 kts | 350° |
| 2026-04-26 01:13 | 44.59958 | 18.55277 | 40022 ft | 453 kts | 350° |
| 2026-04-26 01:13 | 44.66248 | 18.54528 | 40027 ft | 453 kts | 350° |
| 2026-04-26 01:14 | 44.72489 | 18.53782 | 40010 ft | 453 kts | 350° |
| 2026-04-26 01:14 | 44.78788 | 18.53024 | 40005 ft | 458 kts | 350° |
| 2026-04-26 01:15 | 44.85189 | 18.52251 | 40015 ft | 464 kts | 350° |
| 2026-04-26 01:15 | 44.91542 | 18.51495 | 39998 ft | 454 kts | 350° |
| 2026-04-26 01:16 | 44.97826 | 18.50742 | 39995 ft | 452 kts | 350° |
| 2026-04-26 01:16 | 45.04062 | 18.49986 | 39995 ft | 453 kts | 350° |
| 2026-04-26 01:17 | 45.09324 | 18.49348 | 39993 ft | 453 kts | 350° |
| 2026-04-26 01:17 | 45.16615 | 18.48463 | 39986 ft | 453 kts | 350° |
| 2026-04-26 01:18 | 45.21844 | 18.47828 | 39993 ft | 453 kts | 350° |
| 2026-04-26 01:18 | 45.28139 | 18.47061 | 39992 ft | 453 kts | 350° |
| 2026-04-26 01:19 | 45.34418 | 18.46294 | 39986 ft | 453 kts | 351° |
| 2026-04-26 01:19 | 45.40711 | 18.45523 | 39986 ft | 453 kts | 351° |
| 2026-04-26 01:20 | 45.47010 | 18.44750 | 39998 ft | 453 kts | 351° |
| 2026-04-26 01:20 | 45.53302 | 18.43976 | 39989 ft | 454 kts | 351° |
| 2026-04-26 01:21 | 45.59590 | 18.43201 | 39986 ft | 454 kts | 351° |
| 2026-04-26 01:21 | 45.65843 | 18.42428 | 39987 ft | 454 kts | 351° |
| 2026-04-26 01:22 | 45.72139 | 18.41649 | 39987 ft | 454 kts | 351° |
| 2026-04-26 01:22 | 45.78414 | 18.40756 | 39990 ft | 452 kts | 348° |
| 2026-04-26 01:23 | 45.84628 | 18.39377 | 39988 ft | 451 kts | 347° |
| 2026-04-26 01:23 | 45.90822 | 18.37931 | 39998 ft | 451 kts | 347° |
| 2026-04-26 01:24 | 45.96992 | 18.36561 | 39993 ft | 451 kts | 347° |
| 2026-04-26 01:24 | 46.03205 | 18.35222 | 39996 ft | 451 kts | 348° |
| 2026-04-26 01:25 | 46.09418 | 18.33891 | 39992 ft | 451 kts | 348° |
| 2026-04-26 01:25 | 46.15626 | 18.32555 | 39992 ft | 450 kts | 348° |
| 2026-04-26 01:26 | 46.21779 | 18.31226 | 39994 ft | 449 kts | 348° |
| 2026-04-26 01:26 | 46.27966 | 18.29885 | 39993 ft | 449 kts | 348° |
| 2026-04-26 01:27 | 46.34148 | 18.28543 | 39996 ft | 449 kts | 348° |
| 2026-04-26 01:27 | 46.40326 | 18.27199 | 39989 ft | 448 kts | 348° |
| 2026-04-26 01:28 | 46.46487 | 18.25855 | 39995 ft | 447 kts | 348° |
| 2026-04-26 01:28 | 46.52610 | 18.24516 | 39986 ft | 447 kts | 348° |
| 2026-04-26 01:29 | 46.58762 | 18.23168 | 39988 ft | 446 kts | 348° |
| 2026-04-26 01:29 | 46.64887 | 18.21823 | 39986 ft | 446 kts | 348° |
| 2026-04-26 01:30 | 46.71032 | 18.20470 | 39984 ft | 445 kts | 348° |
| 2026-04-26 01:30 | 46.77163 | 18.19117 | 39991 ft | 445 kts | 348° |
| 2026-04-26 01:31 | 46.83297 | 18.17759 | 39985 ft | 446 kts | 348° |
| 2026-04-26 01:31 | 46.89434 | 18.16400 | 39983 ft | 446 kts | 348° |
| 2026-04-26 01:32 | 46.95542 | 18.15043 | 39981 ft | 446 kts | 348° |
| 2026-04-26 01:32 | 47.01689 | 18.13674 | 39987 ft | 446 kts | 348° |
| 2026-04-26 01:33 | 47.07841 | 18.12301 | 39982 ft | 447 kts | 348° |
| 2026-04-26 01:33 | 47.13982 | 18.10927 | 39979 ft | 447 kts | 348° |
| 2026-04-26 01:34 | 47.20128 | 18.09550 | 39987 ft | 447 kts | 348° |
| 2026-04-26 01:34 | 47.26264 | 18.08173 | 39985 ft | 444 kts | 348° |
| 2026-04-26 01:35 | 47.32345 | 18.06805 | 39982 ft | 441 kts | 348° |
| 2026-04-26 01:35 | 47.38365 | 18.05444 | 39985 ft | 440 kts | 348° |
| 2026-04-26 01:36 | 47.44419 | 18.04058 | 42100 ft | 439 kts | 346° |
| 2026-04-26 01:36 | 47.47405 | 18.03128 | 41810 ft | 439 kts | 345° |
| 2026-04-26 01:37 | 47.53419 | 18.01254 | 41226 ft | 442 kts | 345° |
| 2026-04-26 01:37 | 47.56435 | 18.00313 | 40959 ft | 442 kts | 345° |
| 2026-04-26 01:37 | 47.59448 | 17.99373 | 40704 ft | 442 kts | 345° |
| 2026-04-26 01:37 | 47.62453 | 17.98436 | 40465 ft | 441 kts | 345° |
| 2026-04-26 01:38 | 47.65459 | 17.97498 | 40242 ft | 440 kts | 345° |
| 2026-04-26 01:38 | 47.68411 | 17.96576 | 40051 ft | 439 kts | 345° |
| 2026-04-26 01:38 | 47.71438 | 17.95632 | 39839 ft | 438 kts | 345° |
| 2026-04-26 01:38 | 47.74385 | 17.94712 | 39647 ft | 437 kts | 345° |
| 2026-04-26 01:39 | 47.77358 | 17.93784 | 39462 ft | 438 kts | 345° |
| 2026-04-26 01:39 | 47.80348 | 17.92850 | 39293 ft | 438 kts | 345° |
| 2026-04-26 01:39 | 47.83332 | 17.91925 | 39140 ft | 438 kts | 346° |
| 2026-04-26 01:40 | 47.89419 | 17.91018 | 39322 ft | 442 kts | 355° |
| 2026-04-26 01:40 | 47.92483 | 17.90980 | 39638 ft | 439 kts | 357° |
| 2026-04-26 01:40 | 47.95533 | 17.91065 | 39887 ft | 438 kts | 357° |
| 2026-04-26 01:41 | 48.01606 | 17.90753 | 39965 ft | 440 kts | 352° |
| 2026-04-26 01:41 | 48.07666 | 17.89659 | 39964 ft | 436 kts | 348° |
| 2026-04-26 01:42 | 48.13653 | 17.88248 | 39974 ft | 435 kts | 347° |
| 2026-04-26 01:42 | 48.19614 | 17.86802 | 39965 ft | 433 kts | 347° |
| 2026-04-26 01:43 | 48.25559 | 17.85389 | 39963 ft | 432 kts | 348° |
| 2026-04-26 01:43 | 48.31503 | 17.83993 | 39962 ft | 432 kts | 348° |
| 2026-04-26 01:44 | 48.37439 | 17.82603 | 39968 ft | 431 kts | 348° |
| 2026-04-26 01:44 | 48.43339 | 17.81215 | 39968 ft | 432 kts | 348° |
| 2026-04-26 01:45 | 48.49281 | 17.79814 | 39967 ft | 433 kts | 348° |
| 2026-04-26 01:45 | 48.55228 | 17.78408 | 39966 ft | 433 kts | 348° |
| 2026-04-26 01:46 | 48.61178 | 17.76998 | 39972 ft | 433 kts | 347° |
| 2026-04-26 01:46 | 48.67128 | 17.75585 | 39972 ft | 433 kts | 347° |
| 2026-04-26 01:47 | 48.72932 | 17.74203 | 39972 ft | 433 kts | 347° |
| 2026-04-26 01:47 | 48.75341 | 17.73628 | 39970 ft | 433 kts | 347° |
| 2026-04-26 01:48 | 48.81221 | 17.71791 | 39964 ft | 429 kts | 338° |
| 2026-04-26 01:48 | 48.83896 | 17.69980 | 39983 ft | 425 kts | 327° |
| 2026-04-26 01:48 | 48.86305 | 17.67420 | 39975 ft | 421 kts | 317° |
| 2026-04-26 01:49 | 48.89876 | 17.60468 | 39969 ft | 419 kts | 299° |
| 2026-04-26 01:49 | 48.92503 | 17.52522 | 39968 ft | 421 kts | 296° |
| 2026-04-26 01:50 | 48.94993 | 17.44443 | 39979 ft | 422 kts | 296° |
| 2026-04-26 01:50 | 48.97492 | 17.36366 | 39976 ft | 422 kts | 296° |
| 2026-04-26 01:51 | 48.99997 | 17.28354 | 39984 ft | 421 kts | 296° |
| 2026-04-26 01:51 | 49.02523 | 17.20296 | 39985 ft | 421 kts | 296° |
| 2026-04-26 01:52 | 49.05042 | 17.12233 | 39986 ft | 422 kts | 296° |
| 2026-04-26 01:52 | 49.06302 | 17.08189 | 39788 ft | 421 kts | 296° |
| 2026-04-26 01:52 | 49.07554 | 17.04162 | 39551 ft | 419 kts | 296° |
| 2026-04-26 01:52 | 49.08798 | 17.00153 | 39317 ft | 418 kts | 296° |
| 2026-04-26 01:53 | 49.10037 | 16.96153 | 39077 ft | 417 kts | 297° |
| 2026-04-26 01:53 | 49.11275 | 16.92150 | 38843 ft | 415 kts | 297° |
| 2026-04-26 01:53 | 49.12505 | 16.88168 | 38599 ft | 414 kts | 297° |
| 2026-04-26 01:53 | 49.13728 | 16.84199 | 38323 ft | 413 kts | 297° |
| 2026-04-26 01:54 | 49.14952 | 16.80223 | 38054 ft | 414 kts | 297° |
| 2026-04-26 01:54 | 49.16175 | 16.76241 | 37766 ft | 414 kts | 297° |
| 2026-04-26 01:54 | 49.17398 | 16.72256 | 37470 ft | 413 kts | 297° |
| 2026-04-26 01:54 | 49.18606 | 16.68307 | 37022 ft | 408 kts | 297° |
| 2026-04-26 01:55 | 49.19791 | 16.64430 | 36508 ft | 406 kts | 297° |
| 2026-04-26 01:55 | 49.20983 | 16.60525 | 35947 ft | 404 kts | 298° |
| 2026-04-26 01:55 | 49.22187 | 16.56576 | 35396 ft | 403 kts | 298° |
| 2026-04-26 01:55 | 49.23355 | 16.52741 | 34824 ft | 403 kts | 298° |
| 2026-04-26 01:56 | 49.24541 | 16.48841 | 34147 ft | 405 kts | 299° |
| 2026-04-26 01:56 | 49.25732 | 16.44922 | 33351 ft | 408 kts | 299° |
| 2026-04-26 01:56 | 49.26931 | 16.40975 | 32548 ft | 409 kts | 298° |
| 2026-04-26 01:56 | 49.28132 | 16.37012 | 31733 ft | 411 kts | 298° |
| 2026-04-26 01:57 | 49.29337 | 16.33024 | 30899 ft | 414 kts | 297° |
| 2026-04-26 01:57 | 49.30550 | 16.29005 | 29995 ft | 417 kts | 297° |
| 2026-04-26 01:57 | 49.31766 | 16.24963 | 29249 ft | 415 kts | 297° |
| 2026-04-26 01:57 | 49.32959 | 16.20982 | 28705 ft | 407 kts | 297° |
| 2026-04-26 01:58 | 49.34132 | 16.17063 | 28183 ft | 401 kts | 297° |
| 2026-04-26 01:58 | 49.35287 | 16.13197 | 27617 ft | 396 kts | 297° |
| 2026-04-26 01:58 | 49.36430 | 16.09372 | 27052 ft | 392 kts | 297° |
| 2026-04-26 01:58 | 49.37558 | 16.05595 | 26498 ft | 388 kts | 297° |
| 2026-04-26 01:59 | 49.38675 | 16.01850 | 25945 ft | 384 kts | 297° |
| 2026-04-26 01:59 | 49.39767 | 15.98184 | 25386 ft | 381 kts | 297° |
| 2026-04-26 01:59 | 49.40862 | 15.94503 | 24810 ft | 378 kts | 297° |
| 2026-04-26 01:59 | 49.42010 | 15.90903 | 24304 ft | 372 kts | 300° |
| 2026-04-26 02:00 | 49.43231 | 15.87403 | 23774 ft | 369 kts | 301° |
| 2026-04-26 02:00 | 49.44443 | 15.83934 | 23133 ft | 367 kts | 301° |
| 2026-04-26 02:00 | 49.45634 | 15.80492 | 22549 ft | 363 kts | 301° |
| 2026-04-26 02:00 | 49.46803 | 15.77085 | 21994 ft | 359 kts | 301° |
| 2026-04-26 02:01 | 49.47957 | 15.73705 | 21450 ft | 355 kts | 301° |
| 2026-04-26 02:01 | 49.49097 | 15.70359 | 20893 ft | 352 kts | 300° |
| 2026-04-26 02:01 | 49.50224 | 15.67039 | 20348 ft | 348 kts | 300° |
| 2026-04-26 02:01 | 49.51339 | 15.63746 | 19795 ft | 345 kts | 300° |
| 2026-04-26 02:02 | 49.52443 | 15.60479 | 19260 ft | 342 kts | 300° |
| 2026-04-26 02:02 | 49.53539 | 15.57237 | 18748 ft | 339 kts | 300° |
| 2026-04-26 02:02 | 49.54621 | 15.54029 | 18180 ft | 337 kts | 300° |
| 2026-04-26 02:02 | 49.55683 | 15.50876 | 17629 ft | 334 kts | 300° |
| 2026-04-26 02:03 | 49.56743 | 15.47724 | 17108 ft | 330 kts | 300° |
| 2026-04-26 02:03 | 49.57792 | 15.44600 | 16595 ft | 326 kts | 300° |
| 2026-04-26 02:03 | 49.58828 | 15.41513 | 16058 ft | 323 kts | 300° |
| 2026-04-26 02:03 | 49.59858 | 15.38441 | 15552 ft | 320 kts | 300° |
| 2026-04-26 02:04 | 49.60876 | 15.35401 | 15031 ft | 318 kts | 300° |
| 2026-04-26 02:04 | 49.61888 | 15.32376 | 14517 ft | 317 kts | 299° |
| 2026-04-26 02:04 | 49.62897 | 15.29355 | 13999 ft | 315 kts | 299° |
| 2026-04-26 02:04 | 49.63899 | 15.26353 | 13490 ft | 315 kts | 299° |
| 2026-04-26 02:05 | 49.64897 | 15.23358 | 12926 ft | 313 kts | 299° |
| 2026-04-26 02:05 | 49.65886 | 15.20385 | 12411 ft | 309 kts | 298° |
| 2026-04-26 02:05 | 49.66864 | 15.17445 | 11889 ft | 306 kts | 298° |
| 2026-04-26 02:05 | 49.67818 | 15.14569 | 11387 ft | 303 kts | 298° |
| 2026-04-26 02:06 | 49.68775 | 15.11682 | 10878 ft | 300 kts | 298° |
| 2026-04-26 02:06 | 49.69711 | 15.08860 | 10673 ft | 284 kts | 298° |
| 2026-04-26 02:06 | 49.70314 | 15.07146 | 10605 ft | 264 kts | 301° |
| 2026-04-26 02:06 | 49.71632 | 15.04290 | 10467 ft | 228 kts | 306° |
| 2026-04-26 02:07 | 49.72265 | 15.03024 | 10400 ft | 223 kts | 306° |
| 2026-04-26 02:07 | 49.73217 | 15.01127 | 10303 ft | 223 kts | 306° |
| 2026-04-26 02:07 | 49.74164 | 14.99240 | 10163 ft | 222 kts | 306° |
| 2026-04-26 02:07 | 49.75110 | 14.97350 | 10056 ft | 222 kts | 306° |
| 2026-04-26 02:08 | 49.76053 | 14.95466 | 9946 ft | 221 kts | 306° |
| 2026-04-26 02:08 | 49.76993 | 14.93588 | 9789 ft | 221 kts | 306° |
| 2026-04-26 02:08 | 49.77931 | 14.91712 | 9521 ft | 220 kts | 306° |
| 2026-04-26 02:08 | 49.78866 | 14.89842 | 9223 ft | 220 kts | 306° |
| 2026-04-26 02:09 | 49.79799 | 14.87973 | 8918 ft | 219 kts | 307° |
| 2026-04-26 02:09 | 49.80730 | 14.86107 | 8619 ft | 219 kts | 307° |
| 2026-04-26 02:09 | 49.81651 | 14.84236 | 8312 ft | 218 kts | 307° |
| 2026-04-26 02:09 | 49.82567 | 14.82370 | 7999 ft | 217 kts | 307° |
| 2026-04-26 02:10 | 49.83479 | 14.80514 | 7712 ft | 216 kts | 307° |
| 2026-04-26 02:10 | 49.84391 | 14.78661 | 7411 ft | 217 kts | 307° |
| 2026-04-26 02:10 | 49.85317 | 14.76778 | 7142 ft | 227 kts | 307° |
| 2026-04-26 02:10 | 49.86267 | 14.74852 | 7033 ft | 222 kts | 307° |
| 2026-04-26 02:11 | 49.87206 | 14.72947 | 6671 ft | 224 kts | 307° |
| 2026-04-26 02:11 | 49.88156 | 14.71011 | 6204 ft | 227 kts | 308° |
| 2026-04-26 02:11 | 49.89106 | 14.69076 | 5811 ft | 228 kts | 308° |
| 2026-04-26 02:11 | 49.90068 | 14.67132 | 5483 ft | 226 kts | 308° |
| 2026-04-26 02:12 | 49.91011 | 14.65213 | 5199 ft | 223 kts | 308° |
| 2026-04-26 02:12 | 49.91960 | 14.63278 | 4899 ft | 226 kts | 308° |
| 2026-04-26 02:12 | 49.92915 | 14.61327 | 4459 ft | 227 kts | 309° |
| 2026-04-26 02:12 | 49.93867 | 14.59386 | 4134 ft | 225 kts | 309° |
| 2026-04-26 02:13 | 49.94808 | 14.57465 | 4013 ft | 220 kts | 309° |
| 2026-04-26 02:13 | 49.95703 | 14.55640 | 4012 ft | 205 kts | 309° |
| 2026-04-26 02:13 | 49.96541 | 14.53939 | 4027 ft | 192 kts | 309° |
| 2026-04-26 02:13 | 49.97320 | 14.52338 | 4020 ft | 180 kts | 309° |
| 2026-04-26 02:14 | 49.98049 | 14.50833 | 4018 ft | 168 kts | 309° |
| 2026-04-26 02:14 | 49.98730 | 14.49429 | 4015 ft | 157 kts | 310° |
| 2026-04-26 02:14 | 49.99363 | 14.48129 | 4033 ft | 143 kts | 310° |
| 2026-04-26 02:14 | 49.99929 | 14.46972 | 4047 ft | 127 kts | 310° |
| 2026-04-26 02:15 | 50.00461 | 14.45885 | 4026 ft | 127 kts | 310° |
| 2026-04-26 02:15 | 50.00998 | 14.44786 | 3974 ft | 128 kts | 310° |
| 2026-04-26 02:15 | 50.01532 | 14.43685 | 3810 ft | 127 kts | 310° |
| 2026-04-26 02:15 | 50.02057 | 14.42601 | 3634 ft | 127 kts | 310° |
| 2026-04-26 02:16 | 50.02587 | 14.41506 | 3454 ft | 128 kts | 310° |
| 2026-04-26 02:16 | 50.03125 | 14.40397 | 3262 ft | 129 kts | 310° |
| 2026-04-26 02:16 | 50.03653 | 14.39304 | 3089 ft | 123 kts | 310° |
| 2026-04-26 02:16 | 50.04151 | 14.38277 | 2900 ft | 115 kts | 311° |
| 2026-04-26 02:17 | 50.04630 | 14.37287 | 2784 ft | 118 kts | 310° |
| 2026-04-26 02:17 | 50.05127 | 14.36262 | 2573 ft | 118 kts | 310° |
| 2026-04-26 02:17 | 50.05613 | 14.35259 | 2437 ft | 116 kts | 310° |
| 2026-04-26 02:17 | 50.06098 | 14.34253 | 2290 ft | 117 kts | 310° |
| 2026-04-26 02:18 | 50.06593 | 14.33232 | 2101 ft | 117 kts | 310° |
| 2026-04-26 02:18 | 50.07080 | 14.32224 | 1890 ft | 116 kts | 309° |
| 2026-04-26 02:18 | 50.07549 | 14.31235 | 1710 ft | 118 kts | 309° |
| 2026-04-26 02:18 | 50.08038 | 14.30221 | 1638 ft | 116 kts | 309° |
| 2026-04-26 02:19 | 50.08533 | 14.29212 | 1432 ft | 116 kts | 309° |
| 2026-04-26 02:19 | 50.09018 | 14.28211 | 1288 ft | 114 kts | 308° |
| 2026-04-26 02:19 | 50.09474 | 14.27279 | 1211 ft | 94 kts | 307° |
| 2026-04-26 02:19 | 50.09694 | 14.26822 | 1213 ft | 24 kts | 306° |
| 2026-04-26 02:20 | 50.09789 | 14.26624 | 1211 ft | 22 kts | 306° |
| 2026-04-26 02:20 | 50.09883 | 14.26426 | 1205 ft | 24 kts | 306° |
| 2026-04-26 02:20 | 50.09989 | 14.26209 | 1199 ft | 26 kts | 307° |
| 2026-04-26 02:20 | 50.10101 | 14.25982 | 1195 ft | 26 kts | 307° |
| 2026-04-26 02:21 | 50.10216 | 14.25764 | 1191 ft | 25 kts | 316° |
| 2026-04-26 02:21 | 50.10343 | 14.25668 | 1189 ft | 19 kts | 349° |
| 2026-04-26 02:21 | 50.10472 | 14.25673 | 1186 ft | 18 kts | 15° |
| 2026-04-26 02:21 | 50.10536 | 14.25719 | 1176 ft | 0 kts | 32° |
| 2026-04-26 02:22 | 50.10539 | 14.25723 | 1176 ft | 3 kts | 32° |
| 2026-04-26 02:23 | 50.10573 | 14.25757 | 1177 ft | 8 kts | 33° |
| 2026-04-26 02:23 | 50.10633 | 14.25820 | 1173 ft | 12 kts | 34° |
| 2026-04-26 02:23 | 50.10704 | 14.25896 | 1174 ft | 14 kts | 34° |
| 2026-04-26 02:23 | 50.10793 | 14.25991 | 1172 ft | 17 kts | 34° |
| 2026-04-26 02:24 | 50.10894 | 14.26099 | 1172 ft | 19 kts | 34° |
| 2026-04-26 02:24 | 50.11008 | 14.26218 | 1168 ft | 20 kts | 34° |
| 2026-04-26 02:24 | 50.11083 | 14.26337 | 1169 ft | 12 kts | 82° |
| 2026-04-26 02:24 | 50.11075 | 14.26451 | 1175 ft | 10 kts | 96° |
| 2026-04-26 02:25 | 50.11059 | 14.26561 | 1174 ft | 11 kts | 115° |
| 2026-04-26 02:25 | 50.11023 | 14.26600 | 1173 ft | 3 kts | 183° |
| 2026-04-26 02:25 | 50.10994 | 14.26580 | 1175 ft | 6 kts | 213° |
| 2026-04-26 02:25 | 50.10972 | 14.26556 | 1174 ft | 1 kts | 214° |
| 2026-04-26 02:26 | 50.10962 | 14.26546 | 1173 ft | 2 kts | 214° |
| 2026-04-26 02:26 | 50.10960 | 14.26543 | 1174 ft | 0 kts | 214° |